Pineville, SC (29468)

9:27 PM EDT on August 30, 2015 (GMT -0400)
Santee Cooper Regional | | Change Station
CLOSE
Current Station
Airport
Location: Manning,
Elevation: 105 ft
Nearby Weather Stations

Elev 105 ft 33.59 °N, 80.21 °W | Updated 12 minutes ago

Overcast
Overcast
72 °F
Feels Like 72 °F
N
0
Wind Variable Wind from North

Today
High -- | Low -- °F
--% Chance of Precip.
Yesterday
High -- | Low -- °F
Precip. -- in
6:52 AM 7:48 PM
Full, 98% visible
Pressure 30.11 in
Visibility 10.0 miles
Clouds Scattered Clouds 2500 ft
Mostly Cloudy 5000 ft
Dew Point 72 °F
Humidity 100%
Rainfall 0.95 in
Snow Depth Not available.
UV 0 out of 12
Pollen 2.80 out of 12
Air Quality Not available.
Flu Activity Not available.
METAR KMNI 310115Z 00000KT 10SM SCT025 BKN050 22/22 A3011 RMK AO2 PWINO
Pressure 30.11 in
Visibility 10.0 miles
Clouds Scattered Clouds 2500 ft
Mostly Cloudy 5000 ft
Dew Point 72 °F
Humidity 100%
Rainfall 0.95 in
Snow Depth Not available.
UV 0 out of 12
Pollen 2.80 out of 12
Air Quality Not available.
Flu Activity Not available.
METAR KMNI 310115Z 00000KT 10SM SCT025 BKN050 22/22 A3011 RMK AO2 PWINO

10-Day Weather Forecast

×

Almanac

Astronomy

Aug. 30, 2015 Rise Set
Actual Time
Civil Twilight
Nautical Twilight
Astronomical Twilight
Moon
Length of Visible Light
Length of Day
Tomorrow will be .
, % of the Moon is Illuminated

Today's Extremes

State Highs State Lows

Community

WunderPhotos

Upload Photos

1,851,130 photos uploaded!

WunderBlogs® & News

Nearby

Air Quality

  Air Quality AQ Index Pollutant
Not available.

Snow Depth

Station Depth Elevation

Earthquake Activity

City Distance Mag. Time & Date
Minimum magnitude displayed is 2.5.

Coastal Water Temperatures

Place Temperature

Stations

Nearby Weather Stations

Station Location Temp. Windchill Dew Point Humidity Wind Precip. Elev Updated Type